Time;durP1;ratioP1;P1;durP2;ratioP2;P2;SDS_P1;SDS_P2;PMS_P1;PMS_P2;Temp;Humidity;BMP_temperature;BMP_pressure;BME280_temperature;BME280_humidity;BME280_pressure;Samples;Min_cycle;Max_cycle;Signal;HPM_P1;HPM_P2
2022/04/09 00:00:17;;;;;;;;;;;22.30;34.10;;;;;;464509;256;2139;-64
2022/04/09 00:02:18;;;;;;;;;;;22.20;34.20;;;;;;464419;256;1115;-64
2022/04/09 00:04:19;;;;;;;;;;;22.30;34.20;;;;;;464519;256;1155;-64
2022/04/09 00:06:21;;;;;;;;;;;22.20;34.10;;;;;;464581;256;1394;-64
2022/04/09 00:08:22;;;;;;;;;;;22.20;34.10;;;;;;464454;256;1183;-64
2022/04/09 00:10:23;;;;;;;;;;;22.20;34.10;;;;;;464488;256;1060;-64
2022/04/09 00:12:25;;;;;;;;;;;22.10;34.20;;;;;;464451;256;1191;-64
2022/04/09 00:14:26;;;;;;;;;;;22.10;34.10;;;;;;464566;256;1105;-64
2022/04/09 00:16:27;;;;;;;;;;;22.10;34.10;;;;;;464450;256;1098;-64
2022/04/09 00:18:29;;;;;;;;;;;22.20;33.90;;;;;;464465;256;1181;-63
2022/04/09 00:20:30;;;;;;;;;;;22.10;34.10;;;;;;464475;256;2127;-64
2022/04/09 00:22:31;;;;;;;;;;;22.20;33.90;;;;;;464372;256;1222;-64
2022/04/09 00:24:33;;;;;;;;;;;22.20;33.80;;;;;;464614;256;1041;-64
2022/04/09 00:26:34;;;;;;;;;;;22.30;33.60;;;;;;464423;256;1073;-64
2022/04/09 00:28:35;;;;;;;;;;;22.10;34.10;;;;;;464451;256;1099;-64
2022/04/09 00:30:38;;;;;;;;;;;22.10;34.00;;;;;;464448;256;1269;-64
2022/04/09 00:32:38;;;;;;;;;;;22.10;34.20;;;;;;464458;257;1413;-64
2022/04/09 00:34:39;;;;;;;;;;;22.10;34.20;;;;;;464471;256;1237;-64
2022/04/09 00:36:41;;;;;;;;;;;22.10;34.40;;;;;;464521;256;1124;-64
2022/04/09 00:38:42;;;;;;;;;;;22.10;34.40;;;;;;464564;256;1112;-64
2022/04/09 00:40:43;;;;;;;;;;;22.20;34.20;;;;;;464464;256;2201;-64
2022/04/09 00:42:45;;;;;;;;;;;22.20;34.30;;;;;;464461;256;1122;-63
2022/04/09 00:44:46;;;;;;;;;;;22.10;34.40;;;;;;464564;256;1077;-64
2022/04/09 00:46:47;;;;;;;;;;;22.10;34.60;;;;;;464450;256;1124;-64
2022/04/09 00:48:49;;;;;;;;;;;22.10;34.70;;;;;;464457;256;1024;-64
2022/04/09 00:50:50;;;;;;;;;;;22.10;34.70;;;;;;464471;256;1189;-64
2022/04/09 00:52:51;;;;;;;;;;;22.10;34.80;;;;;;464485;256;1077;-64
2022/04/09 00:54:52;;;;;;;;;;;22.10;34.80;;;;;;464569;256;1056;-64
2022/04/09 00:56:54;;;;;;;;;;;22.20;34.90;;;;;;464447;256;1137;-64
2022/04/09 00:58:56;;;;;;;;;;;22.10;35.10;;;;;;464541;256;1138;-64
2022/04/09 01:00:57;;;;;;;;;;;22.10;35.10;;;;;;464461;256;2223;-64
2022/04/09 01:02:58;;;;;;;;;;;22.10;35.20;;;;;;464538;256;1170;-64
2022/04/09 01:04:59;;;;;;;;;;;22.10;35.40;;;;;;464542;256;1171;-64
2022/04/09 01:07:01;;;;;;;;;;;22.20;35.30;;;;;;464629;256;1259;-64
2022/04/09 01:09:02;;;;;;;;;;;22.10;35.50;;;;;;464449;256;1103;-64
2022/04/09 01:11:04;;;;;;;;;;;22.10;35.60;;;;;;464442;256;1237;-64
2022/04/09 01:13:05;;;;;;;;;;;22.20;35.60;;;;;;464460;256;1185;-64
2022/04/09 01:15:06;;;;;;;;;;;22.20;35.70;;;;;;464475;256;1090;-64
2022/04/09 01:17:08;;;;;;;;;;;22.30;35.50;;;;;;464395;256;1380;-64
2022/04/09 01:19:09;;;;;;;;;;;22.10;35.80;;;;;;464484;256;1146;-64
2022/04/09 01:21:11;;;;;;;;;;;22.20;35.70;;;;;;464391;256;2198;-64
2022/04/09 01:23:12;;;;;;;;;;;22.10;35.80;;;;;;464490;256;991;-63
2022/04/09 01:25:13;;;;;;;;;;;22.10;35.80;;;;;;464514;256;1138;-63
2022/04/09 01:27:15;;;;;;;;;;;22.10;35.80;;;;;;464433;256;1191;-63
2022/04/09 01:29:16;;;;;;;;;;;22.10;35.70;;;;;;464534;256;1081;-64
2022/04/09 01:31:17;;;;;;;;;;;22.00;35.90;;;;;;464604;256;1203;-65
2022/04/09 01:33:19;;;;;;;;;;;22.10;35.70;;;;;;464474;256;1070;-64
2022/04/09 01:35:20;;;;;;;;;;;22.20;35.60;;;;;;464662;256;1151;-64
2022/04/09 01:37:21;;;;;;;;;;;22.20;35.60;;;;;;464476;256;1209;-64
2022/04/09 01:39:23;;;;;;;;;;;22.10;35.80;;;;;;464532;256;1176;-64
2022/04/09 01:41:24;;;;;;;;;;;22.20;35.50;;;;;;464452;256;2139;-64
2022/04/09 01:43:25;;;;;;;;;;;22.10;35.70;;;;;;464466;256;1169;-64
2022/04/09 01:45:27;;;;;;;;;;;22.10;35.70;;;;;;464692;256;1026;-64
2022/04/09 01:47:29;;;;;;;;;;;22.10;35.70;;;;;;464462;256;1158;-64
2022/04/09 01:49:30;;;;;;;;;;;22.00;35.70;;;;;;464523;256;960;-64
2022/04/09 01:51:32;;;;;;;;;;;22.10;35.50;;;;;;464474;256;1190;-64
2022/04/09 01:53:34;;;;;;;;;;;22.20;35.30;;;;;;464646;256;1177;-63
2022/04/09 01:55:35;;;;;;;;;;;22.10;35.20;;;;;;464506;256;1419;-64
2022/04/09 01:57:36;;;;;;;;;;;22.10;35.20;;;;;;464577;256;1207;-64
2022/04/09 01:59:37;;;;;;;;;;;22.10;35.30;;;;;;464505;256;2139;-63
2022/04/09 02:01:38;;;;;;;;;;;22.00;35.40;;;;;;464612;256;1148;-64
2022/04/09 02:03:40;;;;;;;;;;;22.10;35.10;;;;;;464493;256;1115;-64
2022/04/09 02:05:41;;;;;;;;;;;22.10;34.90;;;;;;464615;256;1184;-64
2022/04/09 02:07:42;;;;;;;;;;;22.00;35.30;;;;;;464680;256;1060;-64
2022/04/09 02:09:44;;;;;;;;;;;22.00;35.10;;;;;;464541;256;964;-64
2022/04/09 02:11:45;;;;;;;;;;;22.00;35.10;;;;;;464474;256;1071;-64
2022/04/09 02:13:46;;;;;;;;;;;22.20;34.70;;;;;;464464;256;1353;-64
2022/04/09 02:15:48;;;;;;;;;;;22.10;34.90;;;;;;464722;256;1149;-63
2022/04/09 02:17:49;;;;;;;;;;;22.00;34.80;;;;;;464562;256;1105;-64
2022/04/09 02:19:50;;;;;;;;;;;22.10;34.60;;;;;;464525;256;2198;-64
2022/04/09 02:21:52;;;;;;;;;;;22.00;34.50;;;;;;464537;256;1191;-64
2022/04/09 02:23:53;;;;;;;;;;;22.10;34.50;;;;;;464536;256;979;-64
2022/04/09 02:25:54;;;;;;;;;;;22.10;34.30;;;;;;464478;256;1251;-64
2022/04/09 02:27:55;;;;;;;;;;;22.20;34.20;;;;;;464468;256;1130;-64
2022/04/09 02:29:57;;;;;;;;;;;22.10;34.20;;;;;;464607;256;1036;-64
2022/04/09 02:32:00;;;;;;;;;;;22.10;34.20;;;;;;464410;256;1263;-64
2022/04/09 02:34:01;;;;;;;;;;;22.00;34.00;;;;;;464493;257;1420;-64
2022/04/09 02:36:01;;;;;;;;;;;22.10;34.00;;;;;;464410;252;1630;-64
2022/04/09 02:38:03;;;;;;;;;;;22.00;34.10;;;;;;464487;257;1391;-64
2022/04/09 02:40:04;;;;;;;;;;;22.10;33.80;;;;;;464511;256;2214;-64
2022/04/09 02:42:05;;;;;;;;;;;22.00;33.90;;;;;;464454;256;1449;-64
2022/04/09 02:44:07;;;;;;;;;;;22.10;33.80;;;;;;464520;256;1083;-64
2022/04/09 02:46:08;;;;;;;;;;;22.10;33.60;;;;;;464486;256;1046;-65
2022/04/09 02:48:10;;;;;;;;;;;22.00;33.70;;;;;;464511;256;982;-64
2022/04/09 02:50:12;;;;;;;;;;;22.10;33.50;;;;;;464537;256;985;-64
2022/04/09 02:52:12;;;;;;;;;;;21.90;33.70;;;;;;464591;257;1356;-64
2022/04/09 02:54:15;;;;;;;;;;;22.10;33.40;;;;;;464488;256;1085;-64
2022/04/09 02:56:15;;;;;;;;;;;22.00;33.50;;;;;;464396;257;1336;-64
2022/04/09 02:58:16;;;;;;;;;;;21.90;33.50;;;;;;464504;256;1065;-64
2022/04/09 03:00:18;;;;;;;;;;;21.90;33.40;;;;;;464525;256;2209;-64
2022/04/09 03:02:19;;;;;;;;;;;21.90;33.40;;;;;;464461;256;1267;-64
2022/04/09 03:04:20;;;;;;;;;;;22.00;33.30;;;;;;464669;256;1054;-64
2022/04/09 03:06:22;;;;;;;;;;;22.10;33.20;;;;;;464478;256;1088;-64
2022/04/09 03:08:23;;;;;;;;;;;22.10;33.10;;;;;;464573;256;1031;-64
2022/04/09 03:10:24;;;;;;;;;;;22.00;33.00;;;;;;464715;256;975;-64
2022/04/09 03:12:26;;;;;;;;;;;22.10;33.00;;;;;;464514;256;1152;-64
2022/04/09 03:14:27;;;;;;;;;;;22.10;32.90;;;;;;464495;256;965;-64
2022/04/09 03:16:28;;;;;;;;;;;22.10;32.80;;;;;;464437;256;1128;-64
2022/04/09 03:18:30;;;;;;;;;;;22.10;32.70;;;;;;464675;256;1050;-64
2022/04/09 03:20:31;;;;;;;;;;;22.10;32.80;;;;;;464497;256;2182;-64
2022/04/09 03:22:32;;;;;;;;;;;22.10;32.80;;;;;;464480;256;1185;-64
2022/04/09 03:24:34;;;;;;;;;;;22.10;32.70;;;;;;464605;256;1038;-64
2022/04/09 03:26:35;;;;;;;;;;;22.10;32.50;;;;;;464524;256;1188;-64
2022/04/09 03:28:36;;;;;;;;;;;22.00;32.80;;;;;;464513;256;1120;-64
2022/04/09 03:30:38;;;;;;;;;;;22.00;32.60;;;;;;464515;256;1208;-64
2022/04/09 03:32:39;;;;;;;;;;;22.00;32.70;;;;;;464561;256;1183;-64
2022/04/09 03:34:40;;;;;;;;;;;21.90;32.70;;;;;;464553;256;1094;-64
2022/04/09 03:36:42;;;;;;;;;;;22.00;32.70;;;;;;464452;256;1225;-64
2022/04/09 03:38:43;;;;;;;;;;;22.00;32.70;;;;;;464507;256;1112;-64
2022/04/09 03:40:45;;;;;;;;;;;21.90;32.60;;;;;;464492;256;2214;-64
2022/04/09 03:42:46;;;;;;;;;;;21.90;32.60;;;;;;464450;256;1143;-64
2022/04/09 03:44:47;;;;;;;;;;;21.90;32.70;;;;;;464528;256;1138;-64
2022/04/09 03:46:49;;;;;;;;;;;21.90;32.60;;;;;;464522;256;1223;-64
2022/04/09 03:48:50;;;;;;;;;;;21.80;32.60;;;;;;464515;256;1093;-64
2022/04/09 03:50:51;;;;;;;;;;;21.90;32.50;;;;;;464433;256;1193;-64
2022/04/09 03:52:53;;;;;;;;;;;21.80;32.50;;;;;;464444;256;1207;-64
2022/04/09 03:54:54;;;;;;;;;;;21.90;32.40;;;;;;464523;256;1077;-64
2022/04/09 03:56:56;;;;;;;;;;;21.80;32.40;;;;;;464405;256;1229;-64
2022/04/09 03:58:57;;;;;;;;;;;21.80;32.40;;;;;;464607;256;1094;-64
2022/04/09 04:00:58;;;;;;;;;;;21.90;32.40;;;;;;464489;256;2205;-64
2022/04/09 04:03:00;;;;;;;;;;;21.80;32.30;;;;;;464618;256;1069;-64
2022/04/09 04:05:03;;;;;;;;;;;21.80;32.30;;;;;;464613;256;1043;-64
2022/04/09 04:07:03;;;;;;;;;;;21.80;32.30;;;;;;464349;256;1426;-64
2022/04/09 04:09:06;;;;;;;;;;;21.70;32.40;;;;;;464443;256;1058;-64
2022/04/09 04:11:06;;;;;;;;;;;21.70;32.40;;;;;;464312;257;1574;-64
2022/04/09 04:13:07;;;;;;;;;;;21.80;32.30;;;;;;464496;256;1069;-64
2022/04/09 04:15:09;;;;;;;;;;;21.80;32.20;;;;;;464470;256;1057;-64
2022/04/09 04:17:10;;;;;;;;;;;21.80;32.20;;;;;;464483;256;1225;-64
2022/04/09 04:19:11;;;;;;;;;;;21.70;32.40;;;;;;464526;256;1012;-63
2022/04/09 04:21:13;;;;;;;;;;;21.60;32.30;;;;;;464549;256;2195;-63
2022/04/09 04:23:14;;;;;;;;;;;21.80;32.20;;;;;;464470;256;1221;-63
2022/04/09 04:25:15;;;;;;;;;;;21.70;32.20;;;;;;464564;256;1114;-64
2022/04/09 04:27:16;;;;;;;;;;;21.80;32.00;;;;;;464406;256;1062;-63
2022/04/09 04:29:18;;;;;;;;;;;21.80;32.00;;;;;;464451;256;977;-64
2022/04/09 04:31:19;;;;;;;;;;;21.80;31.90;;;;;;464462;256;1055;-63
2022/04/09 04:33:20;;;;;;;;;;;21.70;32.10;;;;;;464519;256;1048;-63
2022/04/09 04:35:22;;;;;;;;;;;21.70;32.00;;;;;;464569;256;972;-63
2022/04/09 04:37:23;;;;;;;;;;;21.80;31.80;;;;;;464439;256;1139;-63
2022/04/09 04:39:24;;;;;;;;;;;21.90;31.80;;;;;;464521;256;1077;-63
2022/04/09 04:41:26;;;;;;;;;;;21.90;31.70;;;;;;464429;256;2198;-63
2022/04/09 04:43:27;;;;;;;;;;;21.80;31.80;;;;;;464642;256;1039;-63
2022/04/09 04:45:29;;;;;;;;;;;21.90;31.80;;;;;;464496;256;1032;-63
2022/04/09 04:47:30;;;;;;;;;;;21.80;31.80;;;;;;464353;256;1414;-64
2022/04/09 04:49:31;;;;;;;;;;;21.80;31.70;;;;;;464541;256;956;-63
2022/04/09 04:51:32;;;;;;;;;;;21.80;31.60;;;;;;464386;256;1252;-63
2022/04/09 04:53:34;;;;;;;;;;;21.40;32.20;;;;;;464573;256;1197;-63
2022/04/09 04:55:35;;;;;;;;;;;21.30;32.40;;;;;;464585;256;1058;-63
2022/04/09 04:57:36;;;;;;;;;;;21.50;32.10;;;;;;464650;256;1059;-63
2022/04/09 04:59:38;;;;;;;;;;;21.50;31.90;;;;;;464498;256;963;-63
2022/04/09 05:01:40;;;;;;;;;;;21.60;31.70;;;;;;464414;256;2203;-63
2022/04/09 05:03:40;;;;;;;;;;;21.70;31.60;;;;;;464381;257;1601;-63
2022/04/09 05:05:42;;;;;;;;;;;21.60;31.70;;;;;;464454;256;1211;-64
2022/04/09 05:07:43;;;;;;;;;;;21.70;31.70;;;;;;464564;256;1163;-64
2022/04/09 05:09:44;;;;;;;;;;;21.70;31.60;;;;;;464603;256;1098;-64
2022/04/09 05:11:46;;;;;;;;;;;21.70;31.60;;;;;;464533;256;1226;-63
2022/04/09 05:13:47;;;;;;;;;;;21.80;31.40;;;;;;464511;256;1086;-63
2022/04/09 05:15:48;;;;;;;;;;;21.70;31.50;;;;;;464613;256;1108;-64
2022/04/09 05:17:49;;;;;;;;;;;21.70;31.40;;;;;;464638;256;1221;-64
2022/04/09 05:19:51;;;;;;;;;;;21.70;31.30;;;;;;464632;256;1073;-63
2022/04/09 05:21:53;;;;;;;;;;;21.70;31.50;;;;;;464371;256;2146;-63
2022/04/09 05:23:53;;;;;;;;;;;21.60;31.40;;;;;;464487;256;1282;-63
2022/04/09 05:25:55;;;;;;;;;;;21.70;31.40;;;;;;464589;256;1322;-64
2022/04/09 05:27:56;;;;;;;;;;;21.70;31.40;;;;;;464407;256;1132;-63
2022/04/09 05:29:57;;;;;;;;;;;21.70;31.40;;;;;;464544;256;1132;-64
2022/04/09 05:32:00;;;;;;;;;;;21.70;31.30;;;;;;464390;256;1224;-64
2022/04/09 05:34:00;;;;;;;;;;;21.70;31.30;;;;;;464702;257;1058;-63
2022/04/09 05:36:02;;;;;;;;;;;21.70;31.40;;;;;;464870;256;1174;-64
2022/04/09 05:38:04;;;;;;;;;;;21.60;31.40;;;;;;464468;256;1193;-63
2022/04/09 05:40:05;;;;;;;;;;;21.70;31.30;;;;;;464644;256;1105;-63
2022/04/09 05:42:06;;;;;;;;;;;21.70;31.10;;;;;;464641;256;2135;-64
2022/04/09 05:44:08;;;;;;;;;;;21.70;31.30;;;;;;464536;256;1023;-63
2022/04/09 05:46:09;;;;;;;;;;;21.60;31.30;;;;;;464452;256;1265;-64
2022/04/09 05:48:10;;;;;;;;;;;21.60;31.30;;;;;;464632;256;1171;-63
2022/04/09 05:50:12;;;;;;;;;;;21.60;31.30;;;;;;464520;256;1262;-64
2022/04/09 05:52:13;;;;;;;;;;;21.70;31.20;;;;;;464633;256;1128;-63
2022/04/09 05:54:14;;;;;;;;;;;21.60;31.40;;;;;;464589;256;1209;-63
2022/04/09 05:56:15;;;;;;;;;;;21.70;31.20;;;;;;464551;256;1180;-63
2022/04/09 05:58:17;;;;;;;;;;;21.60;31.50;;;;;;464611;256;1116;-63
2022/04/09 06:00:19;;;;;;;;;;;21.60;31.40;;;;;;464543;256;1107;-63
2022/04/09 06:02:19;;;;;;;;;;;21.60;31.40;;;;;;464642;256;2197;-64
2022/04/09 06:04:21;;;;;;;;;;;21.60;31.30;;;;;;464455;256;1014;-63
2022/04/09 06:06:22;;;;;;;;;;;21.60;31.20;;;;;;464411;256;1344;-64
2022/04/09 06:08:23;;;;;;;;;;;21.70;31.20;;;;;;464471;256;1196;-64
2022/04/09 06:10:25;;;;;;;;;;;21.70;31.10;;;;;;464489;256;998;-64
2022/04/09 06:12:26;;;;;;;;;;;21.60;31.20;;;;;;464390;256;1147;-64
2022/04/09 06:14:27;;;;;;;;;;;21.60;31.30;;;;;;464457;256;977;-63
2022/04/09 06:16:30;;;;;;;;;;;21.60;31.30;;;;;;464540;256;1259;-64
2022/04/09 06:18:30;;;;;;;;;;;21.70;31.10;;;;;;464576;256;1474;-63
2022/04/09 06:20:32;;;;;;;;;;;21.80;31.10;;;;;;464461;256;1010;-63
2022/04/09 06:22:33;;;;;;;;;;;21.70;31.10;;;;;;464541;256;2143;-64
2022/04/09 06:24:34;;;;;;;;;;;21.70;31.10;;;;;;464549;256;1186;-63
2022/04/09 06:26:36;;;;;;;;;;;21.70;31.10;;;;;;464409;256;1232;-64
2022/04/09 06:28:37;;;;;;;;;;;21.70;31.20;;;;;;464535;256;1082;-64
2022/04/09 06:30:39;;;;;;;;;;;21.60;31.40;;;;;;464468;256;1010;-63
2022/04/09 06:32:40;;;;;;;;;;;21.70;31.20;;;;;;464447;257;1440;-64
2022/04/09 06:34:41;;;;;;;;;;;21.70;31.10;;;;;;464492;256;1179;-63
2022/04/09 06:36:42;;;;;;;;;;;21.60;31.20;;;;;;464440;256;1215;-64
2022/04/09 06:38:44;;;;;;;;;;;21.70;31.20;;;;;;464547;256;1137;-64
2022/04/09 06:40:45;;;;;;;;;;;21.60;31.20;;;;;;464612;256;1218;-64
2022/04/09 06:42:46;;;;;;;;;;;21.80;31.00;;;;;;464477;256;2150;-64
2022/04/09 06:44:47;;;;;;;;;;;21.70;31.20;;;;;;464495;256;965;-64
2022/04/09 06:46:49;;;;;;;;;;;21.70;31.10;;;;;;464501;256;1276;-64
2022/04/09 06:48:50;;;;;;;;;;;21.70;31.10;;;;;;464569;256;1153;-64
2022/04/09 06:50:51;;;;;;;;;;;21.70;31.10;;;;;;464457;256;1204;-64
2022/04/09 06:52:53;;;;;;;;;;;21.60;31.10;;;;;;464614;256;1174;-64
2022/04/09 06:54:56;;;;;;;;;;;21.60;31.30;;;;;;464418;256;1156;-63
2022/04/09 06:56:55;;;;;;;;;;;21.60;31.30;;;;;;464244;257;1563;-63
2022/04/09 06:58:57;;;;;;;;;;;21.70;31.10;;;;;;464713;256;1131;-64
2022/04/09 07:00:59;;;;;;;;;;;21.70;31.00;;;;;;464618;256;1335;-63
2022/04/09 07:03:01;;;;;;;;;;;21.70;31.10;;;;;;464463;256;2198;-64
2022/04/09 07:05:02;;;;;;;;;;;21.70;31.00;;;;;;464890;256;1114;-63
2022/04/09 07:07:03;;;;;;;;;;;21.60;31.20;;;;;;464442;256;1286;-63
2022/04/09 07:09:05;;;;;;;;;;;21.70;30.90;;;;;;464462;256;1095;-64
2022/04/09 07:11:07;;;;;;;;;;;21.60;31.00;;;;;;464405;256;1187;-64
2022/04/09 07:13:08;;;;;;;;;;;21.70;31.00;;;;;;464506;256;988;-63
2022/04/09 07:15:09;;;;;;;;;;;21.70;31.00;;;;;;464513;256;1063;-63
2022/04/09 07:17:11;;;;;;;;;;;21.60;31.00;;;;;;464459;256;1274;-64
2022/04/09 07:19:12;;;;;;;;;;;21.70;31.10;;;;;;464479;256;1047;-63
2022/04/09 07:21:13;;;;;;;;;;;21.60;31.10;;;;;;464582;256;1205;-64
2022/04/09 07:23:15;;;;;;;;;;;21.70;31.00;;;;;;464469;256;2131;-63
2022/04/09 07:25:16;;;;;;;;;;;21.70;31.00;;;;;;464500;256;1103;-63
2022/04/09 07:27:18;;;;;;;;;;;21.70;30.90;;;;;;464737;256;1142;-63
2022/04/09 07:29:19;;;;;;;;;;;21.80;30.80;;;;;;464469;256;1185;-64
2022/04/09 07:31:20;;;;;;;;;;;21.70;30.90;;;;;;464531;256;1279;-64
2022/04/09 07:33:22;;;;;;;;;;;21.70;30.90;;;;;;464514;256;1206;-64
2022/04/09 07:35:23;;;;;;;;;;;21.80;30.80;;;;;;464490;256;1049;-64
2022/04/09 07:37:24;;;;;;;;;;;21.80;30.80;;;;;;464424;256;1128;-64
2022/04/09 07:39:26;;;;;;;;;;;21.80;30.70;;;;;;464464;254;1300;-64
2022/04/09 07:41:27;;;;;;;;;;;21.70;30.70;;;;;;464638;256;1251;-64
2022/04/09 07:43:29;;;;;;;;;;;21.70;30.80;;;;;;464606;256;2198;-63
2022/04/09 07:45:30;;;;;;;;;;;21.70;30.70;;;;;;464495;257;1342;-63
2022/04/09 07:47:31;;;;;;;;;;;21.70;30.70;;;;;;464346;256;1164;-64
2022/04/09 07:49:32;;;;;;;;;;;21.70;30.70;;;;;;464673;256;1044;-63
2022/04/09 07:51:34;;;;;;;;;;;21.70;30.60;;;;;;464351;256;1101;-64
2022/04/09 07:53:35;;;;;;;;;;;21.70;30.60;;;;;;464684;256;1111;-64
2022/04/09 07:55:36;;;;;;;;;;;21.70;30.70;;;;;;464560;256;1177;-64
2022/04/09 07:57:37;;;;;;;;;;;21.70;30.70;;;;;;464380;256;1143;-64
2022/04/09 07:59:39;;;;;;;;;;;21.70;30.60;;;;;;464581;256;1072;-63
2022/04/09 08:01:40;;;;;;;;;;;21.80;30.50;;;;;;464372;256;1202;-64
2022/04/09 08:03:41;;;;;;;;;;;21.70;30.60;;;;;;464444;256;2202;-63
2022/04/09 08:05:43;;;;;;;;;;;21.70;30.50;;;;;;464426;256;1228;-64
2022/04/09 08:07:44;;;;;;;;;;;21.70;30.50;;;;;;464398;257;2014;-64
2022/04/09 08:09:45;;;;;;;;;;;21.80;30.40;;;;;;464504;256;1184;-64
2022/04/09 08:11:47;;;;;;;;;;;21.70;30.40;;;;;;464394;256;1192;-64
2022/04/09 08:13:49;;;;;;;;;;;21.70;30.40;;;;;;464508;256;1067;-64
2022/04/09 08:15:50;;;;;;;;;;;21.70;30.30;;;;;;464403;256;1278;-63
2022/04/09 08:17:54;;;;;;;;;;;21.70;30.20;;;;;;464596;256;1082;-63
2022/04/09 08:19:53;;;;;;;;;;;21.80;30.20;;;;;;464330;257;1373;-64
2022/04/09 08:21:56;;;;;;;;;;;21.80;30.20;;;;;;464416;256;2206;-64
2022/04/09 08:23:56;;;;;;;;;;;21.70;30.10;;;;;;464658;257;1580;-64
2022/04/09 08:25:57;;;;;;;;;;;21.70;30.10;;;;;;464426;256;1224;-63
2022/04/09 08:28:00;;;;;;;;;;;21.80;30.00;;;;;;464554;256;1086;-63
2022/04/09 08:30:00;;;;;;;;;;;21.90;30.00;;;;;;464414;256;1417;-63
2022/04/09 08:32:01;;;;;;;;;;;21.90;29.90;;;;;;464573;256;1128;-64
2022/04/09 08:34:03;;;;;;;;;;;21.80;29.90;;;;;;464562;256;1147;-64
2022/04/09 08:36:04;;;;;;;;;;;21.80;29.90;;;;;;464637;256;1226;-63
2022/04/09 08:38:05;;;;;;;;;;;21.90;29.80;;;;;;464555;256;1257;-64
2022/04/09 08:40:07;;;;;;;;;;;21.90;29.80;;;;;;464489;256;1180;-63
2022/04/09 08:42:08;;;;;;;;;;;21.80;29.80;;;;;;464440;256;2134;-64
2022/04/09 08:44:09;;;;;;;;;;;21.80;29.70;;;;;;464463;256;998;-64
2022/04/09 08:46:11;;;;;;;;;;;21.80;29.70;;;;;;464417;256;1153;-63
2022/04/09 08:48:12;;;;;;;;;;;21.80;29.70;;;;;;464569;256;1351;-63
2022/04/09 08:50:14;;;;;;;;;;;21.80;29.60;;;;;;464433;256;960;-63
2022/04/09 08:52:15;;;;;;;;;;;21.70;29.70;;;;;;464361;256;1200;-64
2022/04/09 08:54:16;;;;;;;;;;;21.80;29.50;;;;;;464589;256;1097;-63
2022/04/09 08:56:18;;;;;;;;;;;21.70;29.60;;;;;;464467;256;1187;-64
2022/04/09 08:58:19;;;;;;;;;;;21.60;29.60;;;;;;464638;256;1290;-63
2022/04/09 09:00:20;;;;;;;;;;;21.60;29.70;;;;;;464558;256;1045;-63
2022/04/09 09:02:23;;;;;;;;;;;21.80;29.40;;;;;;464390;256;2206;-63
2022/04/09 09:04:23;;;;;;;;;;;21.70;29.50;;;;;;464373;257;1260;-63
2022/04/09 09:06:27;;;;;;;;;;;21.60;29.40;;;;;;464333;256;1057;-63
2022/04/09 09:08:26;;;;;;;;;;;21.70;29.40;;;;;;464327;257;1448;-63
2022/04/09 09:10:28;;;;;;;;;;;21.70;29.40;;;;;;464397;256;1142;-64
2022/04/09 09:12:29;;;;;;;;;;;21.70;29.30;;;;;;464375;256;1053;-63
2022/04/09 09:14:30;;;;;;;;;;;21.70;29.20;;;;;;464454;256;1045;-63
2022/04/09 09:16:32;;;;;;;;;;;21.70;29.20;;;;;;464433;256;1099;-63
2022/04/09 09:18:33;;;;;;;;;;;21.60;29.40;;;;;;464675;256;968;-63
2022/04/09 09:20:35;;;;;;;;;;;21.70;29.20;;;;;;464427;256;1022;-64
2022/04/09 09:22:36;;;;;;;;;;;21.70;29.20;;;;;;464410;256;2135;-63
2022/04/09 09:24:37;;;;;;;;;;;21.80;29.10;;;;;;464516;256;977;-63
2022/04/09 09:26:39;;;;;;;;;;;21.80;29.00;;;;;;464498;256;1216;-63
2022/04/09 09:28:40;;;;;;;;;;;21.90;29.00;;;;;;464543;256;1021;-63
2022/04/09 09:30:41;;;;;;;;;;;21.70;29.20;;;;;;464454;256;1051;-63
2022/04/09 09:32:44;;;;;;;;;;;21.80;29.00;;;;;;464477;256;1039;-64
2022/04/09 09:34:44;;;;;;;;;;;21.80;28.90;;;;;;464434;256;1362;-64
2022/04/09 09:36:45;;;;;;;;;;;21.70;28.90;;;;;;464373;256;1238;-63
2022/04/09 09:38:47;;;;;;;;;;;21.80;28.90;;;;;;464599;256;1051;-64
2022/04/09 09:40:48;;;;;;;;;;;21.80;28.90;;;;;;464397;256;1293;-63
2022/04/09 09:42:49;;;;;;;;;;;21.80;28.90;;;;;;464394;256;2182;-64
2022/04/09 09:44:50;;;;;;;;;;;21.90;28.80;;;;;;464507;256;1059;-63
2022/04/09 09:46:52;;;;;;;;;;;21.90;28.80;;;;;;464474;256;1208;-63
2022/04/09 09:48:53;;;;;;;;;;;21.90;28.80;;;;;;464462;256;1035;-64
2022/04/09 09:50:54;;;;;;;;;;;21.90;28.70;;;;;;464512;256;1280;-64
2022/04/09 09:52:56;;;;;;;;;;;22.10;28.50;;;;;;464540;256;1219;-63
2022/04/09 09:54:57;;;;;;;;;;;22.20;28.40;;;;;;464419;256;991;-64
2022/04/09 09:56:58;;;;;;;;;;;22.30;28.30;;;;;;464323;256;1236;-64
2022/04/09 09:59:00;;;;;;;;;;;22.50;28.20;;;;;;464402;256;1075;-64
2022/04/09 10:01:01;;;;;;;;;;;22.60;28.00;;;;;;464421;256;1034;-64
2022/04/09 10:03:02;;;;;;;;;;;22.60;28.00;;;;;;464446;256;2147;-63
2022/04/09 10:05:04;;;;;;;;;;;22.60;28.00;;;;;;464393;256;1114;-64
2022/04/09 10:07:05;;;;;;;;;;;22.90;27.80;;;;;;464302;256;1235;-64
2022/04/09 10:09:06;;;;;;;;;;;22.80;27.80;;;;;;464519;256;1145;-64
2022/04/09 10:11:08;;;;;;;;;;;22.80;27.80;;;;;;464383;256;1330;-64
2022/04/09 10:13:09;;;;;;;;;;;22.80;27.70;;;;;;464441;256;1000;-64
2022/04/09 10:15:10;;;;;;;;;;;22.70;27.80;;;;;;464476;256;1157;-64
2022/04/09 10:17:12;;;;;;;;;;;22.60;27.80;;;;;;464431;256;1154;-64
2022/04/09 10:19:13;;;;;;;;;;;22.60;28.00;;;;;;464462;256;1004;-64
2022/04/09 10:21:14;;;;;;;;;;;22.50;28.10;;;;;;464344;256;1241;-64
2022/04/09 10:23:16;;;;;;;;;;;22.40;28.20;;;;;;464431;256;2202;-64
2022/04/09 10:25:17;;;;;;;;;;;22.20;28.30;;;;;;464650;256;1153;-63
2022/04/09 10:27:19;;;;;;;;;;;22.30;28.20;;;;;;464398;256;1221;-64
2022/04/09 10:29:20;;;;;;;;;;;22.10;28.30;;;;;;464502;256;1056;-63
2022/04/09 10:31:21;;;;;;;;;;;22.00;28.40;;;;;;464577;256;1228;-63
2022/04/09 10:33:22;;;;;;;;;;;22.00;28.40;;;;;;464492;256;1082;-63
2022/04/09 10:35:24;;;;;;;;;;;22.00;28.30;;;;;;464563;256;1064;-63
2022/04/09 10:37:25;;;;;;;;;;;22.00;28.30;;;;;;464533;256;1156;-64
2022/04/09 10:39:29;;;;;;;;;;;22.00;28.40;;;;;;464498;256;1136;-63
2022/04/09 10:41:28;;;;;;;;;;;21.90;28.40;;;;;;464268;257;1323;-63
2022/04/09 10:43:30;;;;;;;;;;;21.90;28.30;;;;;;464468;256;2131;-63
2022/04/09 10:45:30;;;;;;;;;;;21.90;28.30;;;;;;464640;256;1380;-64
2022/04/09 10:47:32;;;;;;;;;;;22.00;28.20;;;;;;464453;256;1215;-63
2022/04/09 10:49:33;;;;;;;;;;;21.90;28.20;;;;;;464584;256;999;-63
2022/04/09 10:51:34;;;;;;;;;;;22.00;28.20;;;;;;464497;256;1317;-63
2022/04/09 10:53:36;;;;;;;;;;;21.90;28.20;;;;;;464519;256;1073;-63
2022/04/09 10:55:37;;;;;;;;;;;21.90;28.20;;;;;;464416;256;1338;-63
2022/04/09 10:57:38;;;;;;;;;;;21.90;28.20;;;;;;464387;256;1208;-63
2022/04/09 10:59:41;;;;;;;;;;;21.90;28.10;;;;;;464531;256;1063;-63
2022/04/09 11:01:41;;;;;;;;;;;21.90;28.10;;;;;;464312;257;1467;-64
2022/04/09 11:03:42;;;;;;;;;;;21.90;28.10;;;;;;464462;256;2199;-63
2022/04/09 11:05:44;;;;;;;;;;;22.00;28.00;;;;;;464510;256;984;-64
2022/04/09 11:07:45;;;;;;;;;;;22.00;28.00;;;;;;464387;256;1164;-64
2022/04/09 11:09:47;;;;;;;;;;;22.00;27.90;;;;;;464476;256;1131;-64
2022/04/09 11:11:47;;;;;;;;;;;21.90;27.90;;;;;;464337;257;1469;-63
2022/04/09 11:13:49;;;;;;;;;;;21.90;28.00;;;;;;464598;256;1058;-63
2022/04/09 11:15:50;;;;;;;;;;;22.00;28.00;;;;;;464439;256;1145;-63
2022/04/09 11:17:51;;;;;;;;;;;21.80;28.10;;;;;;464378;256;1170;-64
2022/04/09 11:19:53;;;;;;;;;;;21.90;28.00;;;;;;464616;256;1076;-63
2022/04/09 11:21:54;;;;;;;;;;;21.90;28.00;;;;;;464363;256;1169;-63
2022/04/09 11:23:55;;;;;;;;;;;21.90;28.00;;;;;;464617;256;2194;-64
2022/04/09 11:25:57;;;;;;;;;;;21.90;28.10;;;;;;464342;256;1306;-63
2022/04/09 11:27:58;;;;;;;;;;;21.90;28.10;;;;;;464390;256;1254;-63
2022/04/09 11:29:59;;;;;;;;;;;21.80;28.00;;;;;;464533;256;986;-64
2022/04/09 11:32:01;;;;;;;;;;;21.80;28.10;;;;;;464412;256;1143;-64
2022/04/09 11:34:04;;;;;;;;;;;21.80;28.00;;;;;;464531;256;970;-63
2022/04/09 11:36:03;;;;;;;;;;;21.80;28.10;;;;;;464300;257;1465;-63
2022/04/09 11:38:05;;;;;;;;;;;22.00;27.90;;;;;;464509;256;1071;-63
2022/04/09 11:40:06;;;;;;;;;;;22.00;27.80;;;;;;464558;256;1080;-64
2022/04/09 11:42:07;;;;;;;;;;;22.30;27.50;;;;;;464386;256;1204;-64
2022/04/09 11:44:08;;;;;;;;;;;22.30;27.60;;;;;;464480;256;2212;-63
2022/04/09 11:46:10;;;;;;;;;;;22.40;27.40;;;;;;464403;256;1356;-64
2022/04/09 11:48:11;;;;;;;;;;;22.50;27.40;;;;;;464660;256;1144;-63
2022/04/09 11:50:13;;;;;;;;;;;22.60;27.30;;;;;;464572;256;1069;-63
2022/04/09 11:52:14;;;;;;;;;;;22.80;27.10;;;;;;464449;256;1157;-63
2022/04/09 11:54:15;;;;;;;;;;;22.80;27.00;;;;;;464562;256;1195;-63
2022/04/09 11:56:17;;;;;;;;;;;22.90;27.00;;;;;;464451;256;1433;-63